createdAt,value
2023-04-25T00:00:18.327Z,4.70
2023-04-25T00:02:45.410Z,4.40
2023-04-25T00:05:12.706Z,4.10
2023-04-25T00:07:40.061Z,4.50
2023-04-25T00:10:07.995Z,4.30
2023-04-25T00:12:34.875Z,4.80
2023-04-25T00:15:01.926Z,4.90
2023-04-25T00:17:29.106Z,3.90
2023-04-25T00:19:57.008Z,3.40
2023-04-25T00:22:24.056Z,3.60
2023-04-25T00:24:51.511Z,4.30
2023-04-25T00:27:18.479Z,3.90
2023-04-25T00:29:46.737Z,4.00
2023-04-25T00:32:13.690Z,4.10
2023-04-25T00:34:41.031Z,4.50
2023-04-25T00:37:08.295Z,4.20
2023-04-25T00:39:36.154Z,4.30
2023-04-25T00:42:04.077Z,4.10
2023-04-25T00:44:33.416Z,4.30
2023-04-25T00:47:03.237Z,4.30
2023-04-25T00:49:30.264Z,4.40
2023-04-25T00:51:57.958Z,4.40
2023-04-25T00:54:25.189Z,3.70
2023-04-25T00:56:52.340Z,3.10
2023-04-25T00:59:21.335Z,3.30
2023-04-25T01:01:48.728Z,3.80
2023-04-25T01:04:15.976Z,3.70
2023-04-25T01:06:43.199Z,3.90
2023-04-25T01:09:10.852Z,4.00
2023-04-25T01:11:37.898Z,4.30
2023-04-25T01:14:04.945Z,4.00
2023-04-25T01:16:33.155Z,3.90
2023-04-25T01:19:00.798Z,3.80
2023-04-25T01:21:29.368Z,4.10
2023-04-25T01:23:57.141Z,4.10
2023-04-25T01:26:25.611Z,4.10
2023-04-25T01:28:53.424Z,4.30
2023-04-25T01:31:21.295Z,3.90
2023-04-25T01:33:49.018Z,3.10
2023-04-25T01:36:16.468Z,3.40
2023-04-25T01:38:45.187Z,3.50
2023-04-25T01:41:12.308Z,3.50
2023-04-25T01:43:39.754Z,3.80
2023-04-25T01:46:07.868Z,3.40
2023-04-25T01:48:34.945Z,3.70
2023-04-25T01:51:02.049Z,3.70
2023-04-25T01:53:30.619Z,4.00
2023-04-25T01:55:58.065Z,4.20
2023-04-25T01:58:27.369Z,3.70
2023-04-25T02:01:16.353Z,3.70
2023-04-25T02:03:47.156Z,3.80
2023-04-25T02:06:27.072Z,3.10
2023-04-25T02:08:56.685Z,2.70
2023-04-25T02:11:23.734Z,3.20
2023-04-25T02:14:01.541Z,3.40
2023-04-25T02:16:47.698Z,3.20
2023-04-25T02:19:14.990Z,3.60
2023-04-25T02:21:42.348Z,3.40
2023-04-25T02:24:11.962Z,3.30
2023-04-25T02:26:40.329Z,4.00
2023-04-25T02:29:09.433Z,3.60
2023-04-25T02:31:36.534Z,3.80
2023-04-25T02:34:03.471Z,3.80
2023-04-25T02:36:33.549Z,3.70
2023-04-25T02:39:01.493Z,3.90
2023-04-25T02:41:28.785Z,3.00
2023-04-25T02:43:56.512Z,2.80
2023-04-25T02:46:37.823Z,3.00
2023-04-25T02:49:07.416Z,3.40
2023-04-25T02:51:34.889Z,3.30
2023-04-25T02:54:02.470Z,3.40
2023-04-25T02:56:30.022Z,3.30
2023-04-25T02:58:57.780Z,3.50
2023-04-25T03:01:25.261Z,3.00
2023-04-25T03:03:52.707Z,3.10
2023-04-25T03:06:20.566Z,3.40
2023-04-25T03:08:47.616Z,3.60
2023-04-25T03:11:14.560Z,3.50
2023-04-25T03:13:43.668Z,2.80
2023-04-25T03:16:11.647Z,2.20
2023-04-25T03:18:38.678Z,3.20
2023-04-25T03:21:05.665Z,2.70
2023-04-25T03:23:32.679Z,3.00
2023-04-25T03:25:59.720Z,3.10
2023-04-25T03:28:26.871Z,3.10
2023-04-25T03:30:56.270Z,3.40
2023-04-25T03:33:23.399Z,3.30
2023-04-25T03:35:51.401Z,2.90
2023-04-25T03:38:18.963Z,3.00
2023-04-25T03:40:46.556Z,3.10
2023-04-25T03:43:24.025Z,2.90
2023-04-25T03:45:56.165Z,3.30
2023-04-25T03:48:25.830Z,3.40
2023-04-25T03:50:55.165Z,2.50
2023-04-25T03:53:22.194Z,2.10
2023-04-25T03:56:18.338Z,2.90
2023-04-25T03:58:46.327Z,3.00
2023-04-25T04:01:14.296Z,2.80
2023-04-25T04:03:41.469Z,3.00
2023-04-25T04:06:10.179Z,2.70
2023-04-25T04:08:40.084Z,3.00
2023-04-25T04:11:07.400Z,3.00
2023-04-25T04:13:34.599Z,3.00
2023-04-25T04:16:02.935Z,3.30
2023-04-25T04:18:30.028Z,3.20
2023-04-25T04:20:59.347Z,3.10
2023-04-25T04:23:29.377Z,3.30
2023-04-25T04:25:57.980Z,3.20
2023-04-25T04:28:52.981Z,2.40
2023-04-25T04:31:43.214Z,2.20
2023-04-25T04:34:11.897Z,2.70
2023-04-25T04:36:41.200Z,2.80
2023-04-25T04:39:10.340Z,3.00
2023-04-25T04:41:59.143Z,2.90
2023-04-25T04:44:56.249Z,3.20
2023-04-25T04:47:38.595Z,2.70
2023-04-25T04:50:24.295Z,2.90
2023-04-25T04:53:09.537Z,3.00
2023-04-25T04:55:45.505Z,3.10
2023-04-25T04:58:38.829Z,3.40
2023-04-25T05:01:13.329Z,3.40
2023-04-25T05:04:10.148Z,3.20
2023-04-25T05:06:48.652Z,3.30
2023-04-25T05:09:27.001Z,2.50
2023-04-25T05:12:23.123Z,2.30
2023-04-25T05:15:16.180Z,2.60
2023-04-25T05:17:55.318Z,2.90
2023-04-25T05:20:25.520Z,2.80
2023-04-25T05:23:18.136Z,3.50
2023-04-25T05:26:00.282Z,3.00
2023-04-25T05:28:48.387Z,3.50
2023-04-25T05:31:37.792Z,3.60
2023-04-25T05:34:14.289Z,3.30
2023-04-25T05:36:50.583Z,3.50
2023-04-25T05:39:18.845Z,3.30
2023-04-25T05:42:05.039Z,3.40
2023-04-25T05:45:01.820Z,3.20
2023-04-25T05:47:47.164Z,3.00
2023-04-25T05:50:19.645Z,3.30
2023-04-25T05:53:00.244Z,3.20
2023-04-25T05:55:33.079Z,3.50
2023-04-25T05:58:08.435Z,3.00
2023-04-25T06:00:37.968Z,3.30
2023-04-25T06:03:05.691Z,3.10
2023-04-25T06:05:33.464Z,3.10
2023-04-25T06:08:00.628Z,2.90
2023-04-25T06:10:27.642Z,3.00
2023-04-25T06:12:54.976Z,3.10
2023-04-25T06:15:28.189Z,3.20
2023-04-25T06:17:57.009Z,3.10
2023-04-25T06:20:25.715Z,3.10
2023-04-25T06:22:54.144Z,2.60
2023-04-25T06:25:25.558Z,2.90
2023-04-25T06:27:52.466Z,2.80
2023-04-25T06:30:23.583Z,3.10
2023-04-25T06:32:52.261Z,3.30
2023-04-25T06:35:19.474Z,3.10
2023-04-25T06:37:46.719Z,2.70
2023-04-25T06:40:13.744Z,2.90
2023-04-25T06:42:41.091Z,2.30
2023-04-25T06:45:48.289Z,2.60
2023-04-25T06:48:15.520Z,2.70
2023-04-25T06:50:43.195Z,2.60
2023-04-25T06:53:11.176Z,2.90
2023-04-25T06:55:38.597Z,2.50
2023-04-25T06:58:24.762Z,2.90
2023-04-25T07:01:09.669Z,2.90
2023-04-25T07:03:38.637Z,2.60
2023-04-25T07:06:08.935Z,2.50
2023-04-25T07:08:36.370Z,2.80
2023-04-25T07:11:03.344Z,2.90
2023-04-25T07:13:31.123Z,2.90
2023-04-25T07:15:58.291Z,2.80
2023-04-25T07:18:25.715Z,2.60
2023-04-25T07:20:52.967Z,2.90
2023-04-25T07:23:20.052Z,2.80
2023-04-25T07:25:47.810Z,2.60
2023-04-25T07:28:19.285Z,3.00
2023-04-25T07:30:47.801Z,2.40
2023-04-25T07:33:15.015Z,2.60
2023-04-25T07:35:42.181Z,2.60
2023-04-25T07:38:11.483Z,2.50
2023-04-25T07:40:38.655Z,2.70
2023-04-25T07:43:07.584Z,2.70
2023-04-25T07:45:40.352Z,2.30
2023-04-25T07:48:10.656Z,2.90
2023-04-25T07:50:40.205Z,2.50
2023-04-25T07:53:07.539Z,2.60
2023-04-25T07:55:41.289Z,2.50
2023-04-25T07:58:12.843Z,2.50
2023-04-25T08:00:41.127Z,2.20
2023-04-25T08:03:34.596Z,2.70
2023-04-25T08:06:06.835Z,2.40
2023-04-25T08:08:39.178Z,2.60
2023-04-25T08:11:08.326Z,2.70
2023-04-25T08:13:38.695Z,3.00
2023-04-25T08:16:06.439Z,2.20
2023-04-25T08:18:34.033Z,2.60
2023-04-25T08:21:00.994Z,2.80
2023-04-25T08:23:29.129Z,2.60
2023-04-25T08:26:11.937Z,2.90
2023-04-25T08:28:39.460Z,2.50
2023-04-25T08:31:06.474Z,2.50
2023-04-25T08:33:40.254Z,3.00
2023-04-25T08:36:35.554Z,2.50
2023-04-25T08:39:06.162Z,2.70
2023-04-25T08:41:34.711Z,2.60
2023-04-25T08:44:03.820Z,2.50
2023-04-25T08:46:32.536Z,2.70
2023-04-25T08:49:16.377Z,2.20
2023-04-25T08:51:48.392Z,2.70
2023-04-25T08:54:30.778Z,2.30
2023-04-25T08:57:05.565Z,2.40
2023-04-25T08:59:34.093Z,2.50
2023-04-25T09:02:02.152Z,2.40
2023-04-25T09:04:32.628Z,2.50
2023-04-25T09:06:59.933Z,2.50
2023-04-25T09:09:27.065Z,2.40
2023-04-25T09:11:56.089Z,2.30
2023-04-25T09:14:26.243Z,2.30
2023-04-25T09:17:04.485Z,2.60
2023-04-25T09:19:49.643Z,2.20
2023-04-25T09:22:38.622Z,2.20
2023-04-25T09:25:11.314Z,2.50
2023-04-25T09:27:54.085Z,2.30
2023-04-25T09:30:33.581Z,2.30
2023-04-25T09:33:12.468Z,2.50
2023-04-25T09:35:44.035Z,2.50
2023-04-25T09:38:19.398Z,2.60
2023-04-25T09:41:10.890Z,2.70
2023-04-25T09:43:40.986Z,2.60
2023-04-25T09:46:12.834Z,2.60
2023-04-25T09:48:50.824Z,2.90
2023-04-25T09:51:19.507Z,2.90
2023-04-25T09:53:51.172Z,2.70
2023-04-25T09:56:37.586Z,2.50
2023-04-25T09:59:08.215Z,2.80
2023-04-25T10:01:37.575Z,2.70
2023-04-25T10:04:12.923Z,2.60
2023-04-25T10:06:50.710Z,2.80
2023-04-25T10:09:21.486Z,2.60
2023-04-25T10:11:52.200Z,2.70
2023-04-25T10:14:20.192Z,2.60
2023-04-25T10:16:48.424Z,2.70
2023-04-25T10:19:16.470Z,2.40
2023-04-25T10:21:52.719Z,2.90
2023-04-25T10:24:21.476Z,2.50
2023-04-25T10:26:49.812Z,2.50
2023-04-25T10:29:25.590Z,2.80
2023-04-25T10:31:52.779Z,2.80
2023-04-25T10:34:21.130Z,2.70
2023-04-25T10:36:53.349Z,3.50
2023-04-25T10:39:25.445Z,4.50
2023-04-25T10:41:58.692Z,5.50
2023-04-25T10:44:32.616Z,5.50
2023-04-25T10:47:02.045Z,6.80
2023-04-25T10:49:37.416Z,7.30
2023-04-25T10:52:17.699Z,8.30
2023-04-25T10:54:49.599Z,8.10
2023-04-25T10:57:32.996Z,9.30
2023-04-25T11:00:07.581Z,9.00
2023-04-25T11:02:49.035Z,9.20
2023-04-25T11:05:28.356Z,8.90
2023-04-25T11:10:30.353Z,10.10
2023-04-25T11:12:58.378Z,10.10
2023-04-25T11:15:26.652Z,10.60
2023-04-25T11:17:54.217Z,10.50
2023-04-25T11:20:21.589Z,10.30
2023-04-25T11:22:50.254Z,10.70
2023-04-25T11:25:17.970Z,10.80
2023-04-25T11:27:54.567Z,10.40
2023-04-25T11:30:22.873Z,10.50
2023-04-25T11:32:49.923Z,10.80
2023-04-25T11:35:17.831Z,10.30
2023-04-25T11:37:45.584Z,10.50
2023-04-25T11:40:13.431Z,10.30
2023-04-25T11:42:44.396Z,9.90
2023-04-25T11:45:12.347Z,9.70
2023-04-25T11:47:39.765Z,9.30
2023-04-25T11:50:09.804Z,9.80
2023-04-25T11:52:41.640Z,9.80
2023-04-25T11:55:15.472Z,10.20
2023-04-25T11:57:44.231Z,9.40
2023-04-25T12:00:18.155Z,9.80
2023-04-25T12:02:56.857Z,9.20
2023-04-25T12:05:32.918Z,10.00
2023-04-25T12:08:17.526Z,9.10
2023-04-25T12:10:46.424Z,8.90
2023-04-25T12:13:25.164Z,8.40
2023-04-25T12:15:52.982Z,8.40
2023-04-25T12:18:22.298Z,8.80
2023-04-25T12:20:49.269Z,8.90
2023-04-25T12:23:16.154Z,8.90
2023-04-25T12:25:46.227Z,8.50
2023-04-25T12:28:23.189Z,8.30
2023-04-25T12:31:04.347Z,7.90
2023-04-25T12:33:33.792Z,8.40
2023-04-25T12:36:06.448Z,8.00
2023-04-25T12:38:38.124Z,8.80
2023-04-25T12:41:05.214Z,7.70
2023-04-25T12:43:32.493Z,7.70
2023-04-25T12:46:00.331Z,7.70
2023-04-25T12:48:27.630Z,7.70
2023-04-25T12:50:54.785Z,7.50
2023-04-25T12:53:25.566Z,7.40
2023-04-25T12:55:52.754Z,7.10
2023-04-25T12:58:21.194Z,7.70
2023-04-25T13:00:48.941Z,6.90
2023-04-25T13:03:16.657Z,7.20
2023-04-25T13:05:44.091Z,7.20
2023-04-25T13:08:11.026Z,7.10
2023-04-25T13:10:40.553Z,6.90
2023-04-25T13:13:07.688Z,7.00
2023-04-25T13:15:34.560Z,6.30
2023-04-25T13:18:01.553Z,6.70
2023-04-25T13:20:28.718Z,6.60
2023-04-25T13:22:56.491Z,6.70
2023-04-25T13:25:23.454Z,6.20
2023-04-25T13:27:50.579Z,6.70
2023-04-25T13:30:17.738Z,6.40
2023-04-25T13:32:45.219Z,6.10
2023-04-25T13:35:14.989Z,6.40
2023-04-25T13:37:42.141Z,6.00
2023-04-25T13:40:12.647Z,6.40
2023-04-25T13:42:40.442Z,6.70
2023-04-25T13:45:08.844Z,6.90
2023-04-25T13:47:36.578Z,6.80
2023-04-25T13:50:04.918Z,7.90
2023-04-25T13:52:32.024Z,7.80
2023-04-25T13:54:59.411Z,8.50
2023-04-25T13:57:26.715Z,7.80
2023-04-25T13:59:54.479Z,8.20
2023-04-25T14:02:24.363Z,8.30
2023-04-25T14:04:51.710Z,8.10
2023-04-25T14:07:22.280Z,8.20
2023-04-25T14:09:50.044Z,7.80
2023-04-25T14:12:18.678Z,8.50
2023-04-25T14:14:48.224Z,7.70
2023-04-25T14:17:15.280Z,8.10
2023-04-25T14:19:48.844Z,8.30
2023-04-25T14:22:16.873Z,8.30
2023-04-25T14:24:44.303Z,7.40
2023-04-25T14:27:12.288Z,8.10
2023-04-25T14:29:40.451Z,8.00
2023-04-25T14:32:10.466Z,8.00
2023-04-25T14:34:41.610Z,8.00
2023-04-25T14:37:08.767Z,7.30
2023-04-25T14:39:36.560Z,7.30
2023-04-25T14:42:04.021Z,7.40
2023-04-25T14:44:31.642Z,7.30
2023-04-25T14:46:59.229Z,7.20
2023-04-25T14:49:33.027Z,6.60
2023-04-25T14:52:01.402Z,6.80
2023-04-25T14:54:28.636Z,6.50
2023-04-25T14:56:55.997Z,6.60
2023-04-25T14:59:23.351Z,6.50
2023-04-25T15:01:50.696Z,6.10
2023-04-25T15:04:19.269Z,6.10
2023-04-25T15:06:47.362Z,6.00
2023-04-25T15:09:19.132Z,5.90
2023-04-25T15:11:46.907Z,5.70
2023-04-25T15:14:16.851Z,5.50
2023-04-25T15:16:44.375Z,4.90
2023-04-25T15:19:13.400Z,4.70
2023-04-25T15:21:42.027Z,4.60
2023-04-25T15:24:12.570Z,4.90
2023-04-25T15:26:40.538Z,4.50
2023-04-25T15:29:08.607Z,4.50
2023-04-25T15:31:35.699Z,4.30
2023-04-25T15:34:04.160Z,3.70
2023-04-25T15:36:32.958Z,3.20
2023-04-25T15:39:04.488Z,3.20
2023-04-25T15:41:31.544Z,3.00
2023-04-25T15:44:11.328Z,3.00
2023-04-25T15:46:43.706Z,3.00
2023-04-25T15:49:11.227Z,3.00
2023-04-25T15:51:40.406Z,3.20
2023-04-25T15:54:07.857Z,3.00
2023-04-25T15:56:35.257Z,3.10
2023-04-25T15:59:03.050Z,2.90
2023-04-25T16:01:36.450Z,2.70
2023-04-25T16:04:05.039Z,3.10
2023-04-25T16:06:32.822Z,3.30
2023-04-25T16:09:00.696Z,3.10
2023-04-25T16:11:27.952Z,2.70
2023-04-25T16:13:56.247Z,3.00
2023-04-25T16:16:23.385Z,2.80
2023-04-25T16:18:50.820Z,2.70
2023-04-25T16:21:17.846Z,3.00
2023-04-25T16:23:45.431Z,3.00
2023-04-25T16:26:12.475Z,2.70
2023-04-25T16:28:39.665Z,2.70
2023-04-25T16:31:09.897Z,2.80
2023-04-25T16:33:39.263Z,2.60
2023-04-25T16:36:13.984Z,2.80
2023-04-25T16:38:41.269Z,2.70
2023-04-25T16:41:08.785Z,2.80
2023-04-25T16:43:36.419Z,2.80
2023-04-25T16:46:03.497Z,2.60
2023-04-25T16:48:30.649Z,2.40
2023-04-25T16:50:57.817Z,2.40
2023-04-25T16:53:25.053Z,2.90
2023-04-25T16:55:52.641Z,2.60
2023-04-25T16:58:25.238Z,2.60
2023-04-25T17:00:52.665Z,2.50
2023-04-25T17:03:21.001Z,2.20
2023-04-25T17:05:51.044Z,2.30
2023-04-25T17:08:20.572Z,2.30
2023-04-25T17:10:52.118Z,2.10
2023-04-25T17:13:20.199Z,2.40
2023-04-25T17:15:47.728Z,2.40
2023-04-25T17:18:14.799Z,2.40
2023-04-25T17:20:43.164Z,2.20
2023-04-25T17:23:14.500Z,2.40
2023-04-25T17:25:41.605Z,2.10
2023-04-25T17:28:08.695Z,2.30
2023-04-25T17:30:35.786Z,2.40
2023-04-25T17:33:04.818Z,2.30
2023-04-25T17:35:34.248Z,2.10
2023-04-25T17:38:01.449Z,2.20
2023-04-25T17:40:31.815Z,2.10
2023-04-25T17:42:59.694Z,2.30
2023-04-25T17:45:29.086Z,2.00
2023-04-25T17:47:56.013Z,2.20
2023-04-25T17:50:24.945Z,2.10
2023-04-25T17:52:52.072Z,2.20
2023-04-25T17:55:20.250Z,2.30
2023-04-25T17:57:47.780Z,2.00
2023-04-25T18:00:17.114Z,2.00
2023-04-25T18:02:45.824Z,2.10
2023-04-25T18:05:12.870Z,2.30
2023-04-25T18:07:39.928Z,2.00
2023-04-25T18:10:07.865Z,1.90
2023-04-25T18:12:35.411Z,2.20
2023-04-25T18:15:07.027Z,2.00
2023-04-25T18:17:40.454Z,2.20
2023-04-25T18:20:15.109Z,2.00
2023-04-25T18:22:46.553Z,2.10
2023-04-25T18:25:14.204Z,1.90
2023-04-25T18:27:42.993Z,2.00
2023-04-25T18:30:17.974Z,1.80
2023-04-25T18:32:45.121Z,1.70
2023-04-25T18:35:13.045Z,1.80
2023-04-25T18:37:42.029Z,1.70
2023-04-25T18:40:14.087Z,1.90
2023-04-25T18:42:42.597Z,1.70
2023-04-25T18:45:11.614Z,1.80
2023-04-25T18:47:38.785Z,2.00
2023-04-25T18:50:08.343Z,1.70
2023-04-25T18:52:35.386Z,1.90
2023-04-25T18:55:02.387Z,1.80
2023-04-25T18:57:29.594Z,1.80
2023-04-25T18:59:56.632Z,1.80
2023-04-25T19:02:27.082Z,1.40
2023-04-25T19:04:54.813Z,1.60
2023-04-25T19:07:22.478Z,1.80
2023-04-25T19:09:49.409Z,2.00
2023-04-25T19:12:16.887Z,1.60
2023-04-25T19:14:44.128Z,1.70
2023-04-25T19:17:12.443Z,1.50
2023-04-25T19:19:41.918Z,1.60
2023-04-25T19:22:09.059Z,1.40
2023-04-25T19:24:36.010Z,1.90
2023-04-25T19:27:03.552Z,1.70
2023-04-25T19:29:32.772Z,1.70
2023-04-25T19:32:03.298Z,1.90
2023-04-25T19:34:34.641Z,1.60
2023-04-25T19:37:01.916Z,1.50
2023-04-25T19:39:31.818Z,1.60
2023-04-25T19:41:59.564Z,1.70
2023-04-25T19:44:27.875Z,2.00
2023-04-25T19:46:54.889Z,1.70
2023-04-25T19:49:22.449Z,1.70
2023-04-25T19:51:51.911Z,1.90
2023-04-25T19:54:18.900Z,1.60
2023-04-25T19:56:46.104Z,1.80
2023-04-25T19:59:12.973Z,1.60
2023-04-25T20:01:40.146Z,2.00
2023-04-25T20:04:07.780Z,1.70
2023-04-25T20:06:35.203Z,1.70
2023-04-25T20:09:04.484Z,1.50
2023-04-25T20:11:33.868Z,1.50
2023-04-25T20:14:01.551Z,1.70
2023-04-25T20:16:28.619Z,1.90
2023-04-25T20:18:56.152Z,1.70
2023-04-25T20:21:24.409Z,1.60
2023-04-25T20:23:51.359Z,1.60
2023-04-25T20:26:20.939Z,1.50
2023-04-25T20:28:50.076Z,1.80
2023-04-25T20:31:17.367Z,1.60
2023-04-25T20:33:45.905Z,1.70
2023-04-25T20:36:15.311Z,1.30
2023-04-25T20:38:45.759Z,1.70
2023-04-25T20:41:13.596Z,1.70
2023-04-25T20:43:42.806Z,1.60
2023-04-25T20:46:10.726Z,1.60
2023-04-25T20:48:38.210Z,1.50
2023-04-25T20:51:07.310Z,1.90
2023-04-25T20:53:35.206Z,1.60
2023-04-25T20:56:02.875Z,1.70
2023-04-25T20:58:29.925Z,1.90
2023-04-25T21:00:57.227Z,1.50
2023-04-25T21:03:26.313Z,2.00
2023-04-25T21:05:53.385Z,1.50
2023-04-25T21:08:20.326Z,1.60
2023-04-25T21:10:47.278Z,1.70
2023-04-25T21:13:14.279Z,1.50
2023-04-25T21:15:41.269Z,1.60
2023-04-25T21:18:08.495Z,1.60
2023-04-25T21:20:36.336Z,2.00
2023-04-25T21:23:03.431Z,1.80
2023-04-25T21:25:31.737Z,1.30
2023-04-25T21:28:00.372Z,1.40
2023-04-25T21:30:28.057Z,1.40
2023-04-25T21:32:55.370Z,1.50
2023-04-25T21:35:23.399Z,1.50
2023-04-25T21:37:51.193Z,1.50
2023-04-25T21:40:18.608Z,1.30
2023-04-25T21:42:50.058Z,1.70
2023-04-25T21:45:17.615Z,1.80
2023-04-25T21:47:46.768Z,1.60
2023-04-25T21:50:14.691Z,1.60
2023-04-25T21:52:42.046Z,1.60
2023-04-25T21:55:12.568Z,1.50
2023-04-25T21:57:39.609Z,1.40
2023-04-25T22:00:21.307Z,1.70
2023-04-25T22:02:49.070Z,1.60
2023-04-25T22:05:16.819Z,1.30
2023-04-25T22:07:43.871Z,1.60
2023-04-25T22:10:11.430Z,1.40
2023-04-25T22:12:38.371Z,1.40
2023-04-25T22:15:06.272Z,1.30
2023-04-25T22:17:33.670Z,1.40
2023-04-25T22:20:01.680Z,1.50
2023-04-25T22:22:29.177Z,1.70
2023-04-25T22:24:56.692Z,1.40
2023-04-25T22:27:24.057Z,1.50
2023-04-25T22:29:51.914Z,1.30
2023-04-25T22:32:19.094Z,1.60
2023-04-25T22:34:47.041Z,1.30
2023-04-25T22:37:13.972Z,1.30
2023-04-25T22:39:41.105Z,1.20
2023-04-25T22:42:08.345Z,1.60
2023-04-25T22:44:35.844Z,1.20
2023-04-25T22:47:03.205Z,1.20
2023-04-25T22:49:31.264Z,1.30
2023-04-25T22:51:58.975Z,1.50
2023-04-25T22:54:26.805Z,1.40
2023-04-25T22:56:53.992Z,1.30
2023-04-25T22:59:21.050Z,1.40
2023-04-25T23:01:50.242Z,1.50
2023-04-25T23:04:19.261Z,1.10
2023-04-25T23:06:46.630Z,1.20
2023-04-25T23:09:14.391Z,1.50
2023-04-25T23:11:44.001Z,1.40
2023-04-25T23:14:11.044Z,1.40
2023-04-25T23:16:38.133Z,1.40
2023-04-25T23:19:05.139Z,1.10
2023-04-25T23:21:32.385Z,1.40
2023-04-25T23:23:59.860Z,1.30
2023-04-25T23:26:27.303Z,1.30
2023-04-25T23:28:55.396Z,1.50
2023-04-25T23:31:22.520Z,1.40
2023-04-25T23:33:50.006Z,1.30
2023-04-25T23:36:21.668Z,1.60
2023-04-25T23:38:50.721Z,1.40
2023-04-25T23:41:18.293Z,1.50
2023-04-25T23:43:45.345Z,1.40
2023-04-25T23:46:12.678Z,1.40
2023-04-25T23:48:39.740Z,1.50
2023-04-25T23:51:06.987Z,1.40
2023-04-25T23:53:33.940Z,1.50
2023-04-25T23:56:01.189Z,1.40
2023-04-25T23:58:28.390Z,1.40
